sensor_id;sensor_type;location;lat;lon;timestamp;P1;durP1;ratioP1;P2;durP2;ratioP2
25327;SDS011;13279;51.300;12.394;2023-05-18T00:00:38;8.73;;;2.30;;
25327;SDS011;13279;51.300;12.394;2023-05-18T00:03:07;9.37;;;2.13;;
25327;SDS011;13279;51.300;12.394;2023-05-18T00:05:35;8.23;;;1.90;;
25327;SDS011;13279;51.300;12.394;2023-05-18T00:08:02;8.57;;;2.00;;
25327;SDS011;13279;51.300;12.394;2023-05-18T00:10:30;5.17;;;2.33;;
25327;SDS011;13279;51.300;12.394;2023-05-18T00:12:57;7.80;;;1.90;;
25327;SDS011;13279;51.300;12.394;2023-05-18T00:15:25;10.37;;;2.37;;
25327;SDS011;13279;51.300;12.394;2023-05-18T00:17:52;8.07;;;2.10;;
25327;SDS011;13279;51.300;12.394;2023-05-18T00:20:21;7.87;;;2.27;;
25327;SDS011;13279;51.300;12.394;2023-05-18T00:22:54;4.83;;;2.47;;
25327;SDS011;13279;51.300;12.394;2023-05-18T00:25:21;13.83;;;2.40;;
25327;SDS011;13279;51.300;12.394;2023-05-18T00:27:49;5.60;;;2.20;;
25327;SDS011;13279;51.300;12.394;2023-05-18T00:30:17;5.37;;;1.90;;
25327;SDS011;13279;51.300;12.394;2023-05-18T00:32:44;5.13;;;2.00;;
25327;SDS011;13279;51.300;12.394;2023-05-18T00:35:12;4.83;;;1.97;;
25327;SDS011;13279;51.300;12.394;2023-05-18T00:37:41;5.90;;;2.73;;
25327;SDS011;13279;51.300;12.394;2023-05-18T00:40:09;9.57;;;2.43;;
25327;SDS011;13279;51.300;12.394;2023-05-18T00:42:37;16.40;;;2.23;;
25327;SDS011;13279;51.300;12.394;2023-05-18T00:45:05;9.20;;;3.00;;
25327;SDS011;13279;51.300;12.394;2023-05-18T00:47:33;10.30;;;2.57;;
25327;SDS011;13279;51.300;12.394;2023-05-18T00:50:01;16.10;;;3.47;;
25327;SDS011;13279;51.300;12.394;2023-05-18T00:52:29;4.43;;;2.27;;
25327;SDS011;13279;51.300;12.394;2023-05-18T00:54:59;13.30;;;2.97;;
25327;SDS011;13279;51.300;12.394;2023-05-18T00:57:26;4.77;;;2.27;;
25327;SDS011;13279;51.300;12.394;2023-05-18T00:59:54;6.13;;;2.40;;
25327;SDS011;13279;51.300;12.394;2023-05-18T01:02:22;10.13;;;2.50;;
25327;SDS011;13279;51.300;12.394;2023-05-18T01:04:49;8.60;;;2.47;;
25327;SDS011;13279;51.300;12.394;2023-05-18T01:07:17;8.00;;;2.50;;
25327;SDS011;13279;51.300;12.394;2023-05-18T01:09:47;5.23;;;2.30;;
25327;SDS011;13279;51.300;12.394;2023-05-18T01:12:16;9.53;;;2.73;;
25327;SDS011;13279;51.300;12.394;2023-05-18T01:14:48;11.40;;;2.97;;
25327;SDS011;13279;51.300;12.394;2023-05-18T01:17:22;9.17;;;2.10;;
25327;SDS011;13279;51.300;12.394;2023-05-18T01:23:05;9.20;;;2.10;;
25327;SDS011;13279;51.300;12.394;2023-05-18T01:28:33;5.70;;;2.70;;
25327;SDS011;13279;51.300;12.394;2023-05-18T01:31:01;6.03;;;2.40;;
25327;SDS011;13279;51.300;12.394;2023-05-18T01:33:31;9.37;;;2.63;;
25327;SDS011;13279;51.300;12.394;2023-05-18T01:35:58;7.07;;;2.33;;
25327;SDS011;13279;51.300;12.394;2023-05-18T01:38:26;11.10;;;2.33;;
25327;SDS011;13279;51.300;12.394;2023-05-18T01:40:57;3.97;;;2.10;;
25327;SDS011;13279;51.300;12.394;2023-05-18T01:43:35;11.13;;;2.60;;
25327;SDS011;13279;51.300;12.394;2023-05-18T01:46:10;9.10;;;2.80;;
25327;SDS011;13279;51.300;12.394;2023-05-18T01:48:43;5.47;;;2.90;;
25327;SDS011;13279;51.300;12.394;2023-05-18T01:51:17;6.50;;;2.43;;
25327;SDS011;13279;51.300;12.394;2023-05-18T01:53:50;11.83;;;2.80;;
25327;SDS011;13279;51.300;12.394;2023-05-18T01:56:23;6.40;;;2.60;;
25327;SDS011;13279;51.300;12.394;2023-05-18T01:58:52;7.37;;;2.43;;
25327;SDS011;13279;51.300;12.394;2023-05-18T02:01:20;9.33;;;2.67;;
25327;SDS011;13279;51.300;12.394;2023-05-18T02:03:49;8.03;;;2.20;;
25327;SDS011;13279;51.300;12.394;2023-05-18T02:06:17;4.77;;;2.67;;
25327;SDS011;13279;51.300;12.394;2023-05-18T02:08:44;9.47;;;2.87;;
25327;SDS011;13279;51.300;12.394;2023-05-18T02:11:12;8.20;;;2.50;;
25327;SDS011;13279;51.300;12.394;2023-05-18T02:13:39;8.20;;;2.90;;
25327;SDS011;13279;51.300;12.394;2023-05-18T02:16:08;7.53;;;2.60;;
25327;SDS011;13279;51.300;12.394;2023-05-18T02:18:36;7.23;;;2.40;;
25327;SDS011;13279;51.300;12.394;2023-05-18T02:21:04;9.10;;;2.80;;
25327;SDS011;13279;51.300;12.394;2023-05-18T02:23:33;8.77;;;2.50;;
25327;SDS011;13279;51.300;12.394;2023-05-18T02:26:01;12.23;;;2.50;;
25327;SDS011;13279;51.300;12.394;2023-05-18T02:28:28;6.33;;;2.10;;
25327;SDS011;13279;51.300;12.394;2023-05-18T02:31:03;10.70;;;2.90;;
25327;SDS011;13279;51.300;12.394;2023-05-18T02:33:35;9.13;;;2.20;;
25327;SDS011;13279;51.300;12.394;2023-05-18T02:36:06;11.17;;;2.63;;
25327;SDS011;13279;51.300;12.394;2023-05-18T02:38:35;6.97;;;2.67;;
25327;SDS011;13279;51.300;12.394;2023-05-18T02:41:04;7.93;;;2.70;;
25327;SDS011;13279;51.300;12.394;2023-05-18T02:43:31;6.50;;;2.63;;
25327;SDS011;13279;51.300;12.394;2023-05-18T02:45:59;10.77;;;2.67;;
25327;SDS011;13279;51.300;12.394;2023-05-18T02:48:27;13.63;;;2.83;;
25327;SDS011;13279;51.300;12.394;2023-05-18T02:50:57;7.60;;;2.53;;
25327;SDS011;13279;51.300;12.394;2023-05-18T02:53:25;7.33;;;2.93;;
25327;SDS011;13279;51.300;12.394;2023-05-18T02:56:00;8.43;;;2.83;;
25327;SDS011;13279;51.300;12.394;2023-05-18T02:58:49;10.03;;;2.57;;
25327;SDS011;13279;51.300;12.394;2023-05-18T03:01:28;9.63;;;2.80;;
25327;SDS011;13279;51.300;12.394;2023-05-18T03:03:55;8.53;;;2.70;;
25327;SDS011;13279;51.300;12.394;2023-05-18T03:06:25;8.83;;;3.33;;
25327;SDS011;13279;51.300;12.394;2023-05-18T03:08:55;8.97;;;2.60;;
25327;SDS011;13279;51.300;12.394;2023-05-18T03:11:31;11.37;;;3.77;;
25327;SDS011;13279;51.300;12.394;2023-05-18T03:13:59;12.83;;;2.80;;
25327;SDS011;13279;51.300;12.394;2023-05-18T03:16:26;10.03;;;2.90;;
25327;SDS011;13279;51.300;12.394;2023-05-18T03:18:54;11.30;;;2.97;;
25327;SDS011;13279;51.300;12.394;2023-05-18T03:21:28;11.07;;;2.70;;
25327;SDS011;13279;51.300;12.394;2023-05-18T03:23:59;5.93;;;2.30;;
25327;SDS011;13279;51.300;12.394;2023-05-18T03:26:26;7.87;;;2.80;;
25327;SDS011;13279;51.300;12.394;2023-05-18T03:28:55;10.30;;;2.83;;
25327;SDS011;13279;51.300;12.394;2023-05-18T03:31:22;10.77;;;2.63;;
25327;SDS011;13279;51.300;12.394;2023-05-18T03:33:55;11.53;;;3.03;;
25327;SDS011;13279;51.300;12.394;2023-05-18T03:36:23;6.17;;;2.43;;
25327;SDS011;13279;51.300;12.394;2023-05-18T03:38:54;6.07;;;2.80;;
25327;SDS011;13279;51.300;12.394;2023-05-18T03:41:29;5.60;;;2.73;;
25327;SDS011;13279;51.300;12.394;2023-05-18T03:43:56;8.17;;;3.03;;
25327;SDS011;13279;51.300;12.394;2023-05-18T03:46:24;4.83;;;2.60;;
25327;SDS011;13279;51.300;12.394;2023-05-18T03:48:55;9.10;;;3.60;;
25327;SDS011;13279;51.300;12.394;2023-05-18T03:51:32;5.33;;;2.67;;
25327;SDS011;13279;51.300;12.394;2023-05-18T03:54:05;8.07;;;3.07;;
25327;SDS011;13279;51.300;12.394;2023-05-18T03:56:45;7.70;;;2.97;;
25327;SDS011;13279;51.300;12.394;2023-05-18T03:59:14;10.30;;;3.00;;
25327;SDS011;13279;51.300;12.394;2023-05-18T04:01:42;7.10;;;3.03;;
25327;SDS011;13279;51.300;12.394;2023-05-18T04:04:13;7.97;;;2.77;;
25327;SDS011;13279;51.300;12.394;2023-05-18T04:07:00;8.83;;;2.83;;
25327;SDS011;13279;51.300;12.394;2023-05-18T04:09:32;7.67;;;2.67;;
25327;SDS011;13279;51.300;12.394;2023-05-18T04:12:02;6.13;;;2.60;;
25327;SDS011;13279;51.300;12.394;2023-05-18T04:14:33;5.23;;;2.63;;
25327;SDS011;13279;51.300;12.394;2023-05-18T04:17:03;8.73;;;2.93;;
25327;SDS011;13279;51.300;12.394;2023-05-18T04:19:38;9.93;;;2.50;;
25327;SDS011;13279;51.300;12.394;2023-05-18T04:22:29;7.97;;;2.70;;
25327;SDS011;13279;51.300;12.394;2023-05-18T04:25:31;6.97;;;2.57;;
25327;SDS011;13279;51.300;12.394;2023-05-18T04:27:59;7.27;;;3.40;;
25327;SDS011;13279;51.300;12.394;2023-05-18T04:30:27;8.47;;;2.70;;
25327;SDS011;13279;51.300;12.394;2023-05-18T04:32:59;9.13;;;3.27;;
25327;SDS011;13279;51.300;12.394;2023-05-18T04:35:28;13.13;;;3.07;;
25327;SDS011;13279;51.300;12.394;2023-05-18T04:37:57;6.83;;;3.00;;
25327;SDS011;13279;51.300;12.394;2023-05-18T04:40:25;11.23;;;2.83;;
25327;SDS011;13279;51.300;12.394;2023-05-18T04:42:54;10.47;;;2.80;;
25327;SDS011;13279;51.300;12.394;2023-05-18T04:45:27;5.60;;;2.73;;
25327;SDS011;13279;51.300;12.394;2023-05-18T04:47:56;7.63;;;2.87;;
25327;SDS011;13279;51.300;12.394;2023-05-18T04:50:31;8.60;;;2.40;;
25327;SDS011;13279;51.300;12.394;2023-05-18T04:53:02;4.90;;;2.23;;
25327;SDS011;13279;51.300;12.394;2023-05-18T04:55:33;11.00;;;2.63;;
25327;SDS011;13279;51.300;12.394;2023-05-18T04:58:07;6.13;;;2.73;;
25327;SDS011;13279;51.300;12.394;2023-05-18T05:00:35;10.77;;;2.40;;
25327;SDS011;13279;51.300;12.394;2023-05-18T05:03:03;6.73;;;2.63;;
25327;SDS011;13279;51.300;12.394;2023-05-18T05:05:32;7.60;;;2.27;;
25327;SDS011;13279;51.300;12.394;2023-05-18T05:08:00;28.77;;;4.83;;
25327;SDS011;13279;51.300;12.394;2023-05-18T05:10:31;8.70;;;2.57;;
25327;SDS011;13279;51.300;12.394;2023-05-18T05:12:58;5.17;;;2.23;;
25327;SDS011;13279;51.300;12.394;2023-05-18T05:15:28;8.47;;;2.27;;
25327;SDS011;13279;51.300;12.394;2023-05-18T05:17:57;9.43;;;2.53;;
25327;SDS011;13279;51.300;12.394;2023-05-18T05:20:25;8.43;;;2.23;;
25327;SDS011;13279;51.300;12.394;2023-05-18T05:22:52;4.83;;;2.30;;
25327;SDS011;13279;51.300;12.394;2023-05-18T05:25:23;10.07;;;2.33;;
25327;SDS011;13279;51.300;12.394;2023-05-18T05:27:51;8.00;;;2.40;;
25327;SDS011;13279;51.300;12.394;2023-05-18T05:30:20;12.40;;;2.33;;
25327;SDS011;13279;51.300;12.394;2023-05-18T05:32:50;8.93;;;2.17;;
25327;SDS011;13279;51.300;12.394;2023-05-18T05:35:18;6.23;;;2.77;;
25327;SDS011;13279;51.300;12.394;2023-05-18T05:37:46;9.47;;;2.10;;
25327;SDS011;13279;51.300;12.394;2023-05-18T05:40:15;13.97;;;2.40;;
25327;SDS011;13279;51.300;12.394;2023-05-18T05:42:45;7.33;;;2.13;;
25327;SDS011;13279;51.300;12.394;2023-05-18T05:45:12;6.70;;;2.30;;
25327;SDS011;13279;51.300;12.394;2023-05-18T05:47:46;10.60;;;2.50;;
25327;SDS011;13279;51.300;12.394;2023-05-18T05:50:20;5.83;;;2.93;;
25327;SDS011;13279;51.300;12.394;2023-05-18T05:52:50;11.67;;;2.40;;
25327;SDS011;13279;51.300;12.394;2023-05-18T05:55:20;8.97;;;2.33;;
25327;SDS011;13279;51.300;12.394;2023-05-18T05:57:49;8.47;;;1.80;;
25327;SDS011;13279;51.300;12.394;2023-05-18T06:00:16;2.73;;;1.63;;
25327;SDS011;13279;51.300;12.394;2023-05-18T06:02:50;10.83;;;2.27;;
25327;SDS011;13279;51.300;12.394;2023-05-18T06:05:27;8.83;;;2.57;;
25327;SDS011;13279;51.300;12.394;2023-05-18T06:07:55;10.10;;;2.07;;
25327;SDS011;13279;51.300;12.394;2023-05-18T06:10:23;4.13;;;2.10;;
25327;SDS011;13279;51.300;12.394;2023-05-18T06:12:52;4.50;;;1.97;;
25327;SDS011;13279;51.300;12.394;2023-05-18T06:15:23;8.37;;;1.90;;
25327;SDS011;13279;51.300;12.394;2023-05-18T06:17:52;9.37;;;2.53;;
25327;SDS011;13279;51.300;12.394;2023-05-18T06:20:20;5.93;;;2.03;;
25327;SDS011;13279;51.300;12.394;2023-05-18T06:22:48;8.43;;;2.03;;
25327;SDS011;13279;51.300;12.394;2023-05-18T06:25:28;8.20;;;2.20;;
25327;SDS011;13279;51.300;12.394;2023-05-18T06:28:09;10.47;;;2.17;;
25327;SDS011;13279;51.300;12.394;2023-05-18T06:30:44;6.83;;;1.83;;
25327;SDS011;13279;51.300;12.394;2023-05-18T06:33:42;13.60;;;2.27;;
25327;SDS011;13279;51.300;12.394;2023-05-18T06:36:10;6.33;;;2.00;;
25327;SDS011;13279;51.300;12.394;2023-05-18T06:38:38;11.17;;;1.80;;
25327;SDS011;13279;51.300;12.394;2023-05-18T06:41:05;6.93;;;2.40;;
25327;SDS011;13279;51.300;12.394;2023-05-18T06:43:32;12.03;;;2.37;;
25327;SDS011;13279;51.300;12.394;2023-05-18T06:46:19;12.47;;;2.20;;
25327;SDS011;13279;51.300;12.394;2023-05-18T06:48:50;5.27;;;1.77;;
25327;SDS011;13279;51.300;12.394;2023-05-18T06:51:17;5.80;;;1.80;;
25327;SDS011;13279;51.300;12.394;2023-05-18T06:53:45;5.93;;;1.63;;
25327;SDS011;13279;51.300;12.394;2023-05-18T06:56:13;6.27;;;2.20;;
25327;SDS011;13279;51.300;12.394;2023-05-18T06:58:43;10.83;;;2.33;;
25327;SDS011;13279;51.300;12.394;2023-05-18T07:01:10;6.57;;;2.20;;
25327;SDS011;13279;51.300;12.394;2023-05-18T07:03:38;11.50;;;2.20;;
25327;SDS011;13279;51.300;12.394;2023-05-18T07:06:06;17.70;;;2.30;;
25327;SDS011;13279;51.300;12.394;2023-05-18T07:08:34;14.03;;;2.90;;
25327;SDS011;13279;51.300;12.394;2023-05-18T07:11:01;6.67;;;2.00;;
25327;SDS011;13279;51.300;12.394;2023-05-18T07:13:28;5.77;;;2.00;;
25327;SDS011;13279;51.300;12.394;2023-05-18T07:15:56;10.07;;;2.67;;
25327;SDS011;13279;51.300;12.394;2023-05-18T07:18:25;7.80;;;2.70;;
25327;SDS011;13279;51.300;12.394;2023-05-18T07:20:53;8.33;;;2.43;;
25327;SDS011;13279;51.300;12.394;2023-05-18T07:23:22;3.20;;;1.70;;
25327;SDS011;13279;51.300;12.394;2023-05-18T07:25:49;11.03;;;2.30;;
25327;SDS011;13279;51.300;12.394;2023-05-18T07:28:17;8.90;;;2.20;;
25327;SDS011;13279;51.300;12.394;2023-05-18T07:30:44;6.47;;;2.10;;
25327;SDS011;13279;51.300;12.394;2023-05-18T07:33:11;12.60;;;2.07;;
25327;SDS011;13279;51.300;12.394;2023-05-18T07:35:39;11.27;;;2.00;;
25327;SDS011;13279;51.300;12.394;2023-05-18T07:38:06;6.27;;;2.23;;
25327;SDS011;13279;51.300;12.394;2023-05-18T07:40:35;6.30;;;2.00;;
25327;SDS011;13279;51.300;12.394;2023-05-18T07:43:02;10.77;;;2.23;;
25327;SDS011;13279;51.300;12.394;2023-05-18T07:45:30;8.03;;;1.90;;
25327;SDS011;13279;51.300;12.394;2023-05-18T07:47:57;11.67;;;2.10;;
25327;SDS011;13279;51.300;12.394;2023-05-18T07:50:24;7.13;;;2.20;;
25327;SDS011;13279;51.300;12.394;2023-05-18T07:52:53;5.57;;;2.00;;
25327;SDS011;13279;51.300;12.394;2023-05-18T07:55:21;11.93;;;2.47;;
25327;SDS011;13279;51.300;12.394;2023-05-18T07:57:49;13.03;;;3.30;;
25327;SDS011;13279;51.300;12.394;2023-05-18T08:00:17;6.80;;;2.03;;
25327;SDS011;13279;51.300;12.394;2023-05-18T08:02:46;12.97;;;1.87;;
25327;SDS011;13279;51.300;12.394;2023-05-18T08:05:13;6.73;;;2.67;;
25327;SDS011;13279;51.300;12.394;2023-05-18T08:07:41;9.53;;;2.10;;
25327;SDS011;13279;51.300;12.394;2023-05-18T08:10:09;8.83;;;2.10;;
25327;SDS011;13279;51.300;12.394;2023-05-18T08:12:37;9.00;;;1.97;;
25327;SDS011;13279;51.300;12.394;2023-05-18T08:15:07;11.57;;;2.40;;
25327;SDS011;13279;51.300;12.394;2023-05-18T08:17:35;6.90;;;1.80;;
25327;SDS011;13279;51.300;12.394;2023-05-18T08:20:02;8.87;;;1.67;;
25327;SDS011;13279;51.300;12.394;2023-05-18T08:22:31;5.50;;;1.70;;
25327;SDS011;13279;51.300;12.394;2023-05-18T08:24:58;7.40;;;1.97;;
25327;SDS011;13279;51.300;12.394;2023-05-18T08:27:27;20.60;;;2.27;;
25327;SDS011;13279;51.300;12.394;2023-05-18T08:29:54;7.63;;;1.70;;
25327;SDS011;13279;51.300;12.394;2023-05-18T08:32:23;8.90;;;1.90;;
25327;SDS011;13279;51.300;12.394;2023-05-18T08:34:50;5.67;;;2.10;;
25327;SDS011;13279;51.300;12.394;2023-05-18T08:37:19;6.73;;;1.50;;
25327;SDS011;13279;51.300;12.394;2023-05-18T08:39:46;8.30;;;1.57;;
25327;SDS011;13279;51.300;12.394;2023-05-18T08:42:15;12.40;;;2.30;;
25327;SDS011;13279;51.300;12.394;2023-05-18T08:44:49;6.03;;;1.50;;
25327;SDS011;13279;51.300;12.394;2023-05-18T08:47:25;6.87;;;1.70;;
25327;SDS011;13279;51.300;12.394;2023-05-18T08:49:54;4.33;;;1.60;;
25327;SDS011;13279;51.300;12.394;2023-05-18T08:52:23;6.30;;;1.30;;
25327;SDS011;13279;51.300;12.394;2023-05-18T08:54:52;12.37;;;2.00;;
25327;SDS011;13279;51.300;12.394;2023-05-18T08:57:24;6.27;;;1.37;;
25327;SDS011;13279;51.300;12.394;2023-05-18T08:59:53;7.87;;;1.63;;
25327;SDS011;13279;51.300;12.394;2023-05-18T09:02:25;7.70;;;1.80;;
25327;SDS011;13279;51.300;12.394;2023-05-18T09:04:52;2.77;;;1.43;;
25327;SDS011;13279;51.300;12.394;2023-05-18T09:07:22;14.10;;;1.90;;
25327;SDS011;13279;51.300;12.394;2023-05-18T09:09:52;3.27;;;1.43;;
25327;SDS011;13279;51.300;12.394;2023-05-18T09:12:22;5.20;;;1.80;;
25327;SDS011;13279;51.300;12.394;2023-05-18T09:14:49;8.60;;;1.83;;
25327;SDS011;13279;51.300;12.394;2023-05-18T09:17:18;7.33;;;1.80;;
25327;SDS011;13279;51.300;12.394;2023-05-18T09:19:49;11.40;;;1.63;;
25327;SDS011;13279;51.300;12.394;2023-05-18T09:22:16;7.43;;;1.50;;
25327;SDS011;13279;51.300;12.394;2023-05-18T09:24:44;5.90;;;1.90;;
25327;SDS011;13279;51.300;12.394;2023-05-18T09:27:12;6.97;;;1.80;;
25327;SDS011;13279;51.300;12.394;2023-05-18T09:29:50;4.43;;;1.67;;
25327;SDS011;13279;51.300;12.394;2023-05-18T09:32:18;10.40;;;2.10;;
25327;SDS011;13279;51.300;12.394;2023-05-18T09:34:46;11.07;;;1.70;;
25327;SDS011;13279;51.300;12.394;2023-05-18T09:37:16;3.63;;;1.47;;
25327;SDS011;13279;51.300;12.394;2023-05-18T09:39:45;4.17;;;1.63;;
25327;SDS011;13279;51.300;12.394;2023-05-18T09:42:31;3.13;;;2.03;;
25327;SDS011;13279;51.300;12.394;2023-05-18T09:45:02;7.90;;;2.07;;
25327;SDS011;13279;51.300;12.394;2023-05-18T09:47:31;7.10;;;1.80;;
25327;SDS011;13279;51.300;12.394;2023-05-18T09:50:00;8.00;;;1.90;;
25327;SDS011;13279;51.300;12.394;2023-05-18T09:52:28;9.70;;;1.70;;
25327;SDS011;13279;51.300;12.394;2023-05-18T09:54:57;6.13;;;1.77;;
25327;SDS011;13279;51.300;12.394;2023-05-18T09:57:25;7.47;;;2.03;;
25327;SDS011;13279;51.300;12.394;2023-05-18T09:59:56;6.07;;;1.50;;
25327;SDS011;13279;51.300;12.394;2023-05-18T10:02:36;5.87;;;1.40;;
25327;SDS011;13279;51.300;12.394;2023-05-18T10:05:04;13.43;;;2.23;;
25327;SDS011;13279;51.300;12.394;2023-05-18T10:07:34;7.83;;;1.70;;
25327;SDS011;13279;51.300;12.394;2023-05-18T10:10:02;6.53;;;1.60;;
25327;SDS011;13279;51.300;12.394;2023-05-18T10:12:30;6.47;;;2.17;;
25327;SDS011;13279;51.300;12.394;2023-05-18T10:14:58;5.77;;;1.63;;
25327;SDS011;13279;51.300;12.394;2023-05-18T10:17:25;7.43;;;1.77;;
25327;SDS011;13279;51.300;12.394;2023-05-18T10:19:54;5.27;;;1.60;;
25327;SDS011;13279;51.300;12.394;2023-05-18T10:22:23;5.90;;;1.37;;
25327;SDS011;13279;51.300;12.394;2023-05-18T10:24:54;4.63;;;1.47;;
25327;SDS011;13279;51.300;12.394;2023-05-18T10:27:25;5.30;;;1.47;;
25327;SDS011;13279;51.300;12.394;2023-05-18T10:29:53;4.07;;;1.60;;
25327;SDS011;13279;51.300;12.394;2023-05-18T10:32:24;6.87;;;2.07;;
25327;SDS011;13279;51.300;12.394;2023-05-18T10:34:56;4.53;;;2.07;;
25327;SDS011;13279;51.300;12.394;2023-05-18T10:37:25;5.50;;;1.70;;
25327;SDS011;13279;51.300;12.394;2023-05-18T10:39:56;6.73;;;1.93;;
25327;SDS011;13279;51.300;12.394;2023-05-18T10:42:25;19.73;;;2.93;;
25327;SDS011;13279;51.300;12.394;2023-05-18T10:44:56;7.97;;;1.67;;
25327;SDS011;13279;51.300;12.394;2023-05-18T10:47:26;4.67;;;1.43;;
25327;SDS011;13279;51.300;12.394;2023-05-18T10:49:54;4.60;;;1.70;;
25327;SDS011;13279;51.300;12.394;2023-05-18T10:52:24;7.07;;;1.63;;
25327;SDS011;13279;51.300;12.394;2023-05-18T10:54:58;8.67;;;1.87;;
25327;SDS011;13279;51.300;12.394;2023-05-18T10:57:27;6.13;;;1.37;;
25327;SDS011;13279;51.300;12.394;2023-05-18T10:59:59;3.90;;;1.33;;
25327;SDS011;13279;51.300;12.394;2023-05-18T11:02:26;8.03;;;1.83;;
25327;SDS011;13279;51.300;12.394;2023-05-18T11:04:55;3.47;;;1.50;;
25327;SDS011;13279;51.300;12.394;2023-05-18T11:07:23;4.87;;;1.43;;
25327;SDS011;13279;51.300;12.394;2023-05-18T11:09:53;5.87;;;1.97;;
25327;SDS011;13279;51.300;12.394;2023-05-18T11:12:22;5.50;;;1.60;;
25327;SDS011;13279;51.300;12.394;2023-05-18T11:14:50;6.67;;;1.80;;
25327;SDS011;13279;51.300;12.394;2023-05-18T11:17:18;4.13;;;1.53;;
25327;SDS011;13279;51.300;12.394;2023-05-18T11:22:41;4.20;;;1.10;;
25327;SDS011;13279;51.300;12.394;2023-05-18T11:28:05;4.23;;;1.50;;
25327;SDS011;13279;51.300;12.394;2023-05-18T11:30:44;4.67;;;1.30;;
25327;SDS011;13279;51.300;12.394;2023-05-18T11:33:20;2.77;;;1.13;;
25327;SDS011;13279;51.300;12.394;2023-05-18T11:35:56;10.60;;;1.70;;
25327;SDS011;13279;51.300;12.394;2023-05-18T11:41:25;4.73;;;1.53;;
25327;SDS011;13279;51.300;12.394;2023-05-18T11:44:17;6.63;;;1.53;;
25327;SDS011;13279;51.300;12.394;2023-05-18T11:46:50;5.43;;;1.47;;
25327;SDS011;13279;51.300;12.394;2023-05-18T11:49:19;4.50;;;1.40;;
25327;SDS011;13279;51.300;12.394;2023-05-18T11:51:56;4.07;;;1.30;;
25327;SDS011;13279;51.300;12.394;2023-05-18T11:54:32;6.00;;;1.33;;
25327;SDS011;13279;51.300;12.394;2023-05-18T11:57:12;4.33;;;1.33;;
25327;SDS011;13279;51.300;12.394;2023-05-18T11:59:42;7.40;;;1.97;;
25327;SDS011;13279;51.300;12.394;2023-05-18T12:02:11;5.90;;;1.40;;
25327;SDS011;13279;51.300;12.394;2023-05-18T12:04:44;4.37;;;1.60;;
25327;SDS011;13279;51.300;12.394;2023-05-18T12:07:12;5.93;;;1.20;;
25327;SDS011;13279;51.300;12.394;2023-05-18T12:09:41;11.33;;;1.50;;
25327;SDS011;13279;51.300;12.394;2023-05-18T12:12:10;6.73;;;1.50;;
25327;SDS011;13279;51.300;12.394;2023-05-18T12:14:40;11.20;;;1.47;;
25327;SDS011;13279;51.300;12.394;2023-05-18T12:17:09;7.13;;;1.80;;
25327;SDS011;13279;51.300;12.394;2023-05-18T12:19:40;10.07;;;1.57;;
25327;SDS011;13279;51.300;12.394;2023-05-18T12:22:09;5.73;;;1.60;;
25327;SDS011;13279;51.300;12.394;2023-05-18T12:24:36;7.13;;;1.60;;
25327;SDS011;13279;51.300;12.394;2023-05-18T12:27:05;4.97;;;1.30;;
25327;SDS011;13279;51.300;12.394;2023-05-18T12:29:34;3.53;;;1.17;;
25327;SDS011;13279;51.300;12.394;2023-05-18T12:32:06;7.80;;;1.43;;
25327;SDS011;13279;51.300;12.394;2023-05-18T12:34:36;2.70;;;1.27;;
25327;SDS011;13279;51.300;12.394;2023-05-18T12:37:04;3.43;;;1.50;;
25327;SDS011;13279;51.300;12.394;2023-05-18T12:39:32;4.10;;;1.40;;
25327;SDS011;13279;51.300;12.394;2023-05-18T12:42:07;4.23;;;1.37;;
25327;SDS011;13279;51.300;12.394;2023-05-18T12:44:40;5.67;;;1.47;;
25327;SDS011;13279;51.300;12.394;2023-05-18T12:47:10;5.20;;;1.47;;
25327;SDS011;13279;51.300;12.394;2023-05-18T12:49:40;7.13;;;2.33;;
25327;SDS011;13279;51.300;12.394;2023-05-18T12:52:10;4.27;;;1.30;;
25327;SDS011;13279;51.300;12.394;2023-05-18T12:54:50;6.30;;;1.70;;
25327;SDS011;13279;51.300;12.394;2023-05-18T12:57:24;12.67;;;1.90;;
25327;SDS011;13279;51.300;12.394;2023-05-18T12:59:55;7.43;;;1.63;;
25327;SDS011;13279;51.300;12.394;2023-05-18T13:02:28;7.27;;;1.60;;
25327;SDS011;13279;51.300;12.394;2023-05-18T13:05:01;7.80;;;1.87;;
25327;SDS011;13279;51.300;12.394;2023-05-18T13:07:36;5.07;;;1.30;;
25327;SDS011;13279;51.300;12.394;2023-05-18T13:10:06;5.17;;;1.67;;
25327;SDS011;13279;51.300;12.394;2023-05-18T13:12:42;6.63;;;1.47;;
25327;SDS011;13279;51.300;12.394;2023-05-18T13:15:12;6.53;;;1.20;;
25327;SDS011;13279;51.300;12.394;2023-05-18T13:17:53;5.73;;;1.80;;
25327;SDS011;13279;51.300;12.394;2023-05-18T13:20:22;4.00;;;1.33;;
25327;SDS011;13279;51.300;12.394;2023-05-18T13:22:55;5.13;;;1.40;;
25327;SDS011;13279;51.300;12.394;2023-05-18T13:25:23;4.90;;;1.63;;
25327;SDS011;13279;51.300;12.394;2023-05-18T13:27:51;6.00;;;1.57;;
25327;SDS011;13279;51.300;12.394;2023-05-18T13:30:20;8.47;;;1.50;;
25327;SDS011;13279;51.300;12.394;2023-05-18T13:32:50;4.47;;;1.50;;
25327;SDS011;13279;51.300;12.394;2023-05-18T13:35:17;9.20;;;1.57;;
25327;SDS011;13279;51.300;12.394;2023-05-18T13:37:45;8.33;;;1.33;;
25327;SDS011;13279;51.300;12.394;2023-05-18T13:40:13;3.33;;;1.37;;
25327;SDS011;13279;51.300;12.394;2023-05-18T13:42:41;6.23;;;1.40;;
25327;SDS011;13279;51.300;12.394;2023-05-18T13:45:10;8.83;;;1.43;;
25327;SDS011;13279;51.300;12.394;2023-05-18T13:47:38;5.43;;;1.60;;
25327;SDS011;13279;51.300;12.394;2023-05-18T13:50:07;8.77;;;1.53;;
25327;SDS011;13279;51.300;12.394;2023-05-18T13:52:36;4.90;;;1.40;;
25327;SDS011;13279;51.300;12.394;2023-05-18T13:55:05;5.67;;;1.50;;
25327;SDS011;13279;51.300;12.394;2023-05-18T13:57:33;7.83;;;1.30;;
25327;SDS011;13279;51.300;12.394;2023-05-18T14:00:01;8.47;;;1.37;;
25327;SDS011;13279;51.300;12.394;2023-05-18T14:02:37;4.53;;;1.43;;
25327;SDS011;13279;51.300;12.394;2023-05-18T14:05:07;4.60;;;1.40;;
25327;SDS011;13279;51.300;12.394;2023-05-18T14:07:35;6.77;;;1.53;;
25327;SDS011;13279;51.300;12.394;2023-05-18T14:10:03;8.37;;;2.00;;
25327;SDS011;13279;51.300;12.394;2023-05-18T14:12:31;5.57;;;1.80;;
25327;SDS011;13279;51.300;12.394;2023-05-18T14:15:00;5.60;;;2.03;;
25327;SDS011;13279;51.300;12.394;2023-05-18T14:17:28;7.13;;;1.70;;
25327;SDS011;13279;51.300;12.394;2023-05-18T14:19:55;6.30;;;1.80;;
25327;SDS011;13279;51.300;12.394;2023-05-18T14:22:24;4.47;;;1.60;;
25327;SDS011;13279;51.300;12.394;2023-05-18T14:24:52;4.73;;;1.17;;
25327;SDS011;13279;51.300;12.394;2023-05-18T14:27:19;8.47;;;1.50;;
25327;SDS011;13279;51.300;12.394;2023-05-18T14:29:47;3.50;;;1.53;;
25327;SDS011;13279;51.300;12.394;2023-05-18T14:32:15;6.97;;;1.53;;
25327;SDS011;13279;51.300;12.394;2023-05-18T14:34:45;2.87;;;1.40;;
25327;SDS011;13279;51.300;12.394;2023-05-18T14:37:12;9.70;;;1.87;;
25327;SDS011;13279;51.300;12.394;2023-05-18T14:39:41;7.53;;;2.47;;
25327;SDS011;13279;51.300;12.394;2023-05-18T14:42:08;5.70;;;1.93;;
25327;SDS011;13279;51.300;12.394;2023-05-18T14:44:36;2.83;;;1.37;;
25327;SDS011;13279;51.300;12.394;2023-05-18T14:47:04;7.17;;;1.37;;
25327;SDS011;13279;51.300;12.394;2023-05-18T14:49:31;4.40;;;1.80;;
25327;SDS011;13279;51.300;12.394;2023-05-18T14:51:58;5.43;;;1.40;;
25327;SDS011;13279;51.300;12.394;2023-05-18T14:54:26;9.67;;;1.37;;
25327;SDS011;13279;51.300;12.394;2023-05-18T14:56:55;4.70;;;1.50;;
25327;SDS011;13279;51.300;12.394;2023-05-18T14:59:24;8.77;;;1.47;;
25327;SDS011;13279;51.300;12.394;2023-05-18T15:01:51;7.73;;;1.87;;